Timeline UpdatesTrip UpdatesNews PostsPvt PostsTravel TipsAdmin PostsConv PostsFollowed PostsChat RequestsBlog PostsPNR Posts

Disclaimer
Search
 
 
Thu Oct 2, 2014 19:59:44 ISTHomeTrainsΣChainsAtlasPNRForumGalleryNewsFAQTripsMembersLoginFeedback
No Recent News for this Train
Other Trains in the News **new
Latest...
A1 and S4 coach are not being detached at Surat. Passengers of S4 travelling towards Nandurbar need to disembark and board earmarked coach in 59075 Bhusaval Passenger from Platform 4.
Sun Feb 17, 2013 (02:49PM)
⇐ Return Journey: Train# 59442

59441/Mumbai Central-Ahmedabad Passenger

Time-Table HAS CHANGED.
Sep 04 (10:15PM)
Change Departure Station:
Change Arrival Station:
Post a Train Travel TipPost a Train Travel Tip **new
Post a Comment/Question/Picture/VideoPost a Comment/Question/Picture/Video
Pantry/Catering
✕ NO Pantry Car
✕ NO Catering
RSA - Rake Sharing
59439/59440 and 59441/59442; Both Mumbai Central Ahmedabad Passengers Share rakes
Rake/Coach Composition
LOCO-SLR-A1-S4-RMS-RMS-S3-S2-S1-GEN-GEN-GEN-GEN-GEN-GEN-LD(As on 1 April); 1 AC 2-tier coach (upto Surat), 3 Sleeper coaches upto Ahmedabad (S1, S2, S3), S4 coach is for Nandurbar and is detached at Surat.
Loco
BL WCAM-1
News    PNR    Forum    Time-Table    Availability    Fare Chart    Map    Arr/Dep History    Trips    Gallery    ΣChains    X/O    Timeline    
Travel Time: 9h 48m    48 halts    Distance: 268 km    Avg Speed: 27 km/hr
Type: Passenger
Zone: WR/Western
Departs @ 04:57 (Avg 6m late)
Platform# ???
SMTWTFS
Vedchha/VDH 
Arrives @ 14:45 (Avg 9m late)
Platform# 1
SMTWTFS
Ahmedabad Junction/ADI 

48 halts. 54 intermediate Stations between Vedchha and Ahmedabad Junction

Show ALL intermediate Stations  Show Old Time-Table

#CodeStation NameX/OArrivesAvgDepartsAvgHaltPFDay#KmSpeedElevZoneAddress
1BCTMumbai Central (9)  -22:40+041-225.1323mWRMumbai 400008, Maharashtra
2DDRMumbai Dadar Western (6)  22:48 22:51+222:53+35 2m51-219.1416mWRMumbai, Maharashtra
3BVIMumbai Borivali (8)  23:25 23:28+323:30+35 2m41-195.43919mWRMumbai - 400092, Maharashtra
4BYRBhayandar (6)  23:44+523:46+52m51-186.4346mWRThane, Maharashtra
5BSRVasai Road (7)XO  23:52 00:01+400:01 00:13+59 12m42-178.0397mWRVasai 401202, Maharashtra
6VRVirar (8)  00:26+400:28+72m--2-169.6586mWRDist. Palghar, Maharashtra
7SAHSaphale (2)  00:46 00:45+1400:47+141 2m12-153.2648mWRDist. Palghar, Maharashtra
8KLVKelve Road (3)O  00:50 00:53+1700:55+265 2m--2-146.82810mWRDist. Palghar, Maharashtra
9PLGPalghar (3)O  01:05 01:13+2301:15+2110 2m--2-138.43419mWRPalghar, Maharashtra
10BORBoisar (3)X  01:35+1001:37+112m22-127.16317mWRBoisar Tel.no-02525-266626, Maharashtra
11VGNVangaon (3)X  01:47 01:46+1401:48+141 2m--2-117.75311mWRDist. Palghar, Maharashtra
12DRDDahanu Road (5)XO  02:02+1302:04+132m--2-105.46712mWRDahanu, Maharashtra
13GVDGholvad (4)X  02:15 02:14+1302:16+131 2m--2-94.36114mWRGholvad, Maharashtra
14UBRUmbargam Road (3)XO  02:26 02:25+1302:27+161 2m--2-85.12330mWRUmbergaon, Gujarat
15SJNSanjan (3)X  02:42 02:41+1002:43+141 2m--2-79.85822mWRSanjan, Gujarat
16BLDBhilad (3)X  02:56 02:55+1302:57+131 2m--2-68.25833mWRBhilad, Gujarat
17KEBKarambeli (2)  03:02-03:04-2m--2-63.46429mWRNational Highway 8, Gujarat
18VAPIVapi (3)X  03:10+1103:12+112m--2-56.96427mWRVapi, Gujarat
19UVDUdvada (3)X  03:22 03:21+1403:23+141 2m--2-47.36018mWRUdvada, Gujarat
20PADPardi (3)XO  03:30 03:29+1403:31+151 2m--2-41.32719mWRValsad, Gujarat
21BLValsad (3)X  03:45 03:55+1003:55 04:15+1210 20m12-30.76715mWRValsad, Gujarat
22DGIDungri (3)X  04:24 04:23+704:25+71 2m--2-21.86820mWRNH 8, Gujarat
23BIMBilimora Junction (4)  04:33+804:35+72m--2-12.75611mWRBilimora, Gujarat
24AMLAmalsad (3)X  04:41+904:43+82m--2-7.24612mWRAmalsad, Gujarat
25ACLAncheli (2)  04:49 04:48-04:50-1 2m--2-3.44020mWRNavsari, Gujarat
26VDHVedchha (3)»  04:55+704:57+62m--20.06313mWRNavsari, Gujarat
27NVSNavsari (3)X  05:04 05:05+605:07+63 2m--28.45614mWRNavsari, Gujarat
28MRLMaroli (3)X  05:16+705:18+72m--216.95715mWRMaroli, Gujarat
29SCHSachin (3)X  05:26 05:25+705:27+71 2m1223.56811mWRKansad Road Sachin, Gujarat
30BHETBhestan (2)X  05:32+1105:34+112m1229.24113mWRSurat, Gujarat
31UDNUdhna Junction (3)X  05:41+1205:43+122m1234.01116mWRUdhna 394210, Gujarat
32STSurat (4)X  06:05+206:45+240m3238.03919mWRSurat 395001, Gujarat
33URNUtran (3)X  06:53 06:51+1906:54 06:53+191 2m--241.96415mWRSurat, Gujarat
34KSEKosad (2)  06:58 06:56+2106:59 06:58+211 2m--245.17317mWRSurat, Gujarat
35GTXGothangam (2)X  07:03 07:01+2207:04 07:03+211 2m--248.84419mWRAmroli Sayan Rd, Gujarat
36SYNSayan (3)X  07:09 07:07+2207:10 07:09+211 2m--251.78621mWRSayan Satellite town, Gujarat
37KDSDKudsad (2)  07:16 07:14-07:18 07:16-2m--258.94218mWRNH 8, Gujarat
38KIMKim (2)X  07:22 07:20+2207:24 07:22+212m--261.75818mWRNH 8, Gujarat
39KSBKosamba Junction (3)  07:32 07:30+2207:34 07:32+222m--269.45230mWRKosamba, Gujarat
40HATHathuran (2)X  07:39 07:37-07:41 07:39-2m--273.84632mWRKosamba, Gujarat
41PAOPanoli (3)XO  07:46 07:44+2107:50 07:46+204 2m--277.73229mWRPanoli, Gujarat
42SNJLSanjali (2)X  07:56 07:54-07:58 07:56-2m1281.97323mWRSanjali, Gujarat
43AKVAnkleshwar Junction (4)X  08:03 08:01+1308:05 08:03+132m1288.03719mWRAnkleshwar, Gujarat
44BHBharuch Junction (5)X  08:18+1208:23+125m1297.36019mWRBharuch, Gujarat
45CVJChavaj (2)X  08:30 08:28+2208:32 08:30+222m--2102.36120mWRBharuch, Gujarat
46NIUNabipur (3)X  08:39 08:37+2008:41 08:39+192m--2109.45824mWRNabipur, Gujarat
47VREVarediya (4)X  08:48 08:46+1908:50 08:48+182m--2116.15721mWRNH 8, Gujarat
48PLJPalej (4)X  08:57 08:55+1708:59 08:57+172m--2122.76229mWRPalej, Gujarat
49LKDLakodara (4)X  09:06 09:04+1809:08 09:06+182m--2130.06026mWRNH 8, Gujarat
50MYGMiyagam Karjan (2)X  09:16 09:14+1809:18 09:16+182m22138.05829mWRKarjan, Gujarat
51KSPRKashipura Sarar (2)  09:26 09:24+1909:28 09:26+192m--2145.83826mWRGIDC Industrial Area, Gujarat
52ITAItola (4)  09:33 09:32+2109:35 09:34+202m--2149.63427mWRNational Highway 8 Vadodara, Gujarat
53VRMVarnama (2)  09:40 09:41+2109:42 09:43+212m--2153.55628mWRVadodara, Gujarat
54MPRMakarpura (4)X  09:48 09:49+2109:50 09:51+202m--2159.15730mWRVadodara, Gujarat
55VSVishvamitri (4)O  09:56 09:57+2309:58 09:59+242m--2164.81130mWRVadodara, Gujarat
56BRCVadodara Junction (7)O  10:12 10:15+1010:32 10:35+1320m42167.82936mWRVadodara 390005, Gujarat
57BJWBajva (3)X  10:49 10:50+4710:50 10:52+511 2m--2175.12338mWRVadodara, Gujarat
58RNORanoli (2)X  11:01 11:02+4811:03 11:04+482m--2178.95039mWRVadodara District, Gujarat
59NDRNandesari (2)X  11:08 11:09-11:10 11:11-2m--2183.05042mWRNandesari, Gujarat
60VDAVasad Junction (3)XO  11:16 11:17+4511:23 11:19+437 2m--2188.02140mWRVasad, Gujarat
61ADDAdas Road (4)X  11:31 11:32+4111:33 11:34+402m--2192.73542mWRNational Highway 8, Gujarat
62VXDVadod (3)XO  11:40 11:41+4011:48 11:43+378 2m--2196.72044mWRAnand District, Gujarat
63ANNDAnand Junction (6)X  12:03 12:04+2212:08 12:09+205m22203.65644mWRAnand, Gujarat
64KBRVKanjari Boriyavi Junction (4)X  12:16 12:17+2712:18 12:19+262m--2211.03339mWRKanjari, Gujarat
65UTDUtarsanda (4)  12:27 12:29+2612:28 12:30+261m--2216.52440mWRUttarsanda, Gujarat
66NDNadiad Junction (4)  12:41 12:44+2112:46 12:49+185m22222.07937mWRNadiad, Gujarat
67GTEGothaj (2)  12:55 12:56+1812:57 12:58+252m--2231.33332mWRState Highway 3, Gujarat
68MHDMahemdavad Kheda Road (4)O  13:12 13:13+2213:18 13:15+206 2m--2239.62537mWRMahemdavad, Gujarat
69NEPNenpur (2)XO  13:24 13:25-13:26 13:27-2m--2243.72935mWRState Highway 3, Gujarat
70KANJKanij (3)  13:32 13:33+1713:34 13:35+182m--2246.63339mWRBareja-Barejadi Rd, Gujarat
71BJDBarejadi Nandej (3)O  13:41 13:43+2113:46 13:44+205 1m--2251.01142mWRBareja-Barejadi Rd, Gujarat
72GERGeratpur (2)X  14:05 14:03+814:06 14:05+101 2m--2254.34044mWRAhmadabad, Gujarat
73VTAVatva (4)X  14:15 14:13+1714:16 14:15+171 2m--2259.65849mWRDist. Ahmedabad 382445, Gujarat
74MANManinagar (2)  14:22 14:20+614:24 14:22+62m12264.4850mWRAhmadabad, Gujarat
75ADIAhmedabad Junction (12)•  14:45+9-12267.6-51mWRAhmedabad, Gujarat
Scroll to Top
Scroll to Bottom